Time;durP1;ratioP1;P1;durP2;ratioP2;P2;SDS_P1;SDS_P2;PMS_P1;PMS_P2;Temp;Humidity;BMP_temperature;BMP_pressure;BME280_temperature;BME280_humidity;BME280_pressure;Samples;Min_cycle;Max_cycle;Signal;HPM_P1;HPM_P2
2022/11/11 00:00:33;;;;;;;56.45;32.05;;;7.10;99.90;;;;;;4993450;28;20022;-64
2022/11/11 00:02:59;;;;;;;61.63;31.83;;;7.00;99.90;;;;;;4993782;28;20026;-62
2022/11/11 00:05:27;;;;;;;63.53;32.65;;;7.00;99.90;;;;;;4993339;28;20081;-64
2022/11/11 00:07:58;;;;;;;63.50;33.83;;;6.90;99.90;;;;;;4993260;28;20537;-64
2022/11/11 00:10:28;;;;;;;65.28;32.58;;;6.80;99.90;;;;;;4993179;28;20557;-66
2022/11/11 00:12:56;;;;;;;60.30;29.95;;;6.70;99.90;;;;;;4993430;28;20389;-65
2022/11/11 00:15:22;;;;;;;58.80;31.33;;;6.60;99.90;;;;;;4993126;28;20026;-63
2022/11/11 00:26:11;;;;;;;63.42;32.30;;;6.70;99.90;;;;;;4993085;28;20049;-62
2022/11/11 00:28:37;;;;;;;58.70;32.35;;;6.80;99.90;;;;;;4993074;28;20042;-64
2022/11/11 00:31:08;;;;;;;63.80;31.95;;;6.80;99.90;;;;;;4993200;28;20023;-64
2022/11/11 00:33:34;;;;;;;57.45;31.63;;;6.80;99.90;;;;;;4993282;28;20453;-64
2022/11/11 00:36:00;;;;;;;58.75;31.45;;;6.80;99.90;;;;;;4991997;28;20051;-64
2022/11/11 00:38:45;;;;;;;57.80;31.55;;;6.90;99.90;;;;;;4992786;28;20498;-62
2022/11/11 00:41:19;;;;;;;61.13;30.30;;;6.90;99.90;;;;;;4992760;28;20494;-64
2022/11/11 00:43:45;;;;;;;65.25;33.10;;;7.00;99.90;;;;;;4992651;28;20516;-64
2022/11/11 00:51:55;;;;;;;70.10;34.22;;;7.10;99.90;;;;;;4978109;28;20401;-62
2022/11/11 00:54:20;;;;;;;60.90;33.45;;;7.20;99.90;;;;;;4975168;28;20019;-62
2022/11/11 00:56:46;;;;;;;61.58;32.80;;;7.10;99.90;;;;;;4992606;28;20030;-64
2022/11/11 00:59:12;;;;;;;67.38;34.03;;;7.20;99.90;;;;;;4992327;28;20096;-63
2022/11/11 01:01:37;;;;;;;63.25;33.28;;;7.30;99.90;;;;;;4992592;28;20088;-62
2022/11/11 01:04:04;;;;;;;59.55;30.80;;;7.30;99.90;;;;;;4974848;28;20030;-62
2022/11/11 01:06:29;;;;;;;57.77;30.53;;;7.40;99.90;;;;;;4992333;28;20101;-66
2022/11/11 01:08:55;;;;;;;56.03;29.15;;;7.40;99.90;;;;;;4992340;28;20122;-66
2022/11/11 01:11:23;;;;;;;55.22;30.77;;;7.40;99.90;;;;;;4992347;28;20034;-62
2022/11/11 01:13:49;;;;;;;60.20;30.40;;;7.50;99.90;;;;;;4992308;28;20749;-64
2022/11/11 01:16:21;;;;;;;55.15;29.58;;;7.50;99.90;;;;;;4992384;28;20033;-64
2022/11/11 01:18:47;;;;;;;65.78;35.17;;;7.50;99.90;;;;;;4992085;28;20522;-63
2022/11/11 01:21:19;;;;;;;69.57;38.58;;;7.50;99.90;;;;;;4992268;28;20363;-65
2022/11/11 01:23:47;;;;;;;88.90;48.88;;;7.40;99.90;;;;;;4991992;28;20035;-61
2022/11/11 01:26:14;;;;;;;93.60;50.05;;;7.40;99.90;;;;;;4991959;28;20064;-63
2022/11/11 01:28:40;;;;;;;83.57;46.13;;;7.30;99.90;;;;;;4992024;28;20034;-65
2022/11/11 01:31:09;;;;;;;86.65;46.70;;;7.30;99.90;;;;;;4974357;28;20165;-64
2022/11/11 01:33:35;;;;;;;78.43;45.38;;;7.30;99.90;;;;;;4991990;28;20030;-63
2022/11/11 01:36:17;;;;;;;76.88;42.72;;;7.30;99.90;;;;;;4974008;28;20033;-64
2022/11/11 01:38:43;;;;;;;68.63;39.85;;;7.30;99.90;;;;;;4991655;28;20486;-66
2022/11/11 01:43:57;;;;;;;59.83;35.03;;;7.40;99.90;;;;;;4992086;28;20033;-63
2022/11/11 01:46:44;;;;;;;70.43;36.88;;;7.40;99.90;;;;;;4991442;28;20033;-64
2022/11/11 01:49:19;;;;;;;50.25;29.73;;;7.50;99.90;;;;;;4991300;28;20129;-63
2022/11/11 01:51:55;;;;;;;73.43;42.63;;;7.50;99.90;;;;;;4991644;28;20018;-64
2022/11/11 01:54:47;;;;;;;53.08;31.02;;;7.50;99.90;;;;;;4991643;28;20050;-61
2022/11/11 01:57:30;;;;;;;55.15;30.95;;;7.50;99.90;;;;;;4991394;28;20405;-61
2022/11/11 02:00:01;;;;;;;51.00;27.88;;;7.50;99.90;;;;;;4973949;28;20504;-63
2022/11/11 02:02:33;;;;;;;52.90;27.73;;;7.60;99.90;;;;;;4991504;28;20026;-62
2022/11/11 02:07:47;;;;;;;50.03;29.10;;;7.50;99.90;;;;;;4991373;28;20045;-64
2022/11/11 02:10:12;;;;;;;48.05;26.63;;;7.60;99.90;;;;;;4991491;28;20172;-63
2022/11/11 02:15:22;;;;;;;49.58;28.67;;;7.60;99.90;;;;;;4991134;28;20112;-64
2022/11/11 02:17:49;;;;;;;65.03;35.38;;;7.70;99.90;;;;;;4991254;28;20470;-61
2022/11/11 02:20:19;;;;;;;53.00;29.35;;;7.70;99.90;;;;;;4991086;28;20038;-63
2022/11/11 02:22:50;;;;;;;65.07;38.05;;;7.80;99.90;;;;;;4991180;28;20041;-63
2022/11/11 02:25:22;;;;;;;53.42;30.13;;;7.80;99.90;;;;;;4991012;28;20026;-64
2022/11/11 02:27:50;;;;;;;78.45;43.65;;;7.80;99.90;;;;;;4990715;28;20037;-64
2022/11/11 02:30:18;;;;;;;80.43;47.58;;;7.80;99.90;;;;;;4990943;28;20045;-64
2022/11/11 02:32:46;;;;;;;81.78;47.97;;;7.80;99.90;;;;;;4990981;28;20038;-65
2022/11/11 02:35:16;;;;;;;69.70;38.13;;;7.80;99.90;;;;;;4988214;28;20073;-63
2022/11/11 02:37:45;;;;;;;50.95;30.55;;;7.70;99.90;;;;;;4990635;28;20382;-64
2022/11/11 02:40:22;;;;;;;49.83;28.52;;;7.70;99.90;;;;;;4989971;28;20121;-63
2022/11/11 02:42:47;;;;;;;82.63;44.30;;;7.80;99.90;;;;;;4990694;28;20030;-63
2022/11/11 02:45:13;;;;;;;86.85;47.10;;;7.70;99.90;;;;;;4972915;28;20446;-65
2022/11/11 02:47:39;;;;;;;63.92;39.50;;;7.70;99.90;;;;;;4990607;28;20521;-64
2022/11/11 02:50:06;;;;;;;53.25;30.23;;;7.60;99.90;;;;;;4990287;28;20493;-66
2022/11/11 02:52:32;;;;;;;51.30;28.75;;;7.60;99.90;;;;;;4990353;28;20034;-64
2022/11/11 02:54:57;;;;;;;48.97;29.58;;;7.70;99.90;;;;;;4990200;28;20029;-66
2022/11/11 02:57:23;;;;;;;51.60;29.17;;;7.60;99.90;;;;;;4989913;28;20018;-63
2022/11/11 02:59:49;;;;;;;52.25;28.83;;;7.60;99.90;;;;;;4990047;28;20045;-64
2022/11/11 03:02:15;;;;;;;49.50;28.27;;;7.50;99.90;;;;;;4990253;28;20081;-62
2022/11/11 03:04:40;;;;;;;64.70;30.90;;;7.50;99.90;;;;;;4972962;28;20512;-63
2022/11/11 03:07:06;;;;;;;52.58;31.00;;;7.50;99.90;;;;;;4990419;28;20454;-62
2022/11/11 03:09:32;;;;;;;61.17;29.30;;;7.50;99.90;;;;;;4990124;28;20026;-64
2022/11/11 03:11:58;;;;;;;55.38;29.25;;;7.50;99.90;;;;;;4990509;28;20033;-62
2022/11/11 03:14:23;;;;;;;57.08;30.67;;;7.40;99.90;;;;;;4990174;28;20148;-63
2022/11/11 03:19:33;;;;;;;51.97;29.40;;;7.40;99.90;;;;;;4990479;28;20045;-63
2022/11/11 03:21:59;;;;;;;53.85;30.05;;;7.40;99.90;;;;;;4989618;28;20031;-63
2022/11/11 03:25:36;;;;;;;54.40;28.45;;;7.40;99.90;;;;;;4989938;28;20033;-64
2022/11/11 03:27:11;;;;;;;59.35;32.20;;;7.40;99.90;;;;;;4989918;28;20121;-65
2022/11/11 03:29:37;;;;;;;49.13;28.33;;;7.30;99.90;;;;;;4989922;28;20049;-62
2022/11/11 03:32:04;;;;;;;51.38;28.45;;;7.30;99.90;;;;;;4974477;28;20041;-64
2022/11/11 03:34:29;;;;;;;51.13;29.27;;;7.40;99.90;;;;;;4953054;28;20038;-63
2022/11/11 03:39:39;;;;;;;54.15;30.02;;;7.30;99.90;;;;;;4970372;28;20159;-62
2022/11/11 03:42:05;;;;;;;51.83;29.42;;;7.30;99.90;;;;;;4970584;28;20102;-62
2022/11/11 03:44:30;;;;;;;58.95;29.13;;;7.20;99.90;;;;;;4970455;28;20367;-63
2022/11/11 03:46:56;;;;;;;55.88;31.73;;;7.10;99.90;;;;;;4952869;28;20462;-63
2022/11/11 03:49:21;;;;;;;54.70;29.40;;;7.10;99.90;;;;;;4970369;28;20035;-63
2022/11/11 03:51:47;;;;;;;54.92;28.65;;;7.10;99.90;;;;;;4970418;28;20114;-63
2022/11/11 03:54:12;;;;;;;56.63;30.05;;;7.10;99.90;;;;;;4970297;28;20030;-64
2022/11/11 03:56:38;;;;;;;55.90;29.45;;;7.10;99.90;;;;;;4970338;28;20670;-64
2022/11/11 03:59:04;;;;;;;57.00;30.52;;;7.10;99.90;;;;;;4970119;28;20054;-61
2022/11/11 04:12:26;;;;;;;51.35;28.95;;;6.90;99.90;;;;;;4974205;28;20042;-65
2022/11/11 04:17:36;;;;;;;51.40;28.63;;;6.90;99.90;;;;;;4974101;28;20505;-66
2022/11/11 04:22:47;;;;;;;53.67;28.88;;;7.00;99.90;;;;;;4973815;28;20090;-61
2022/11/11 04:30:43;;;;;;;55.65;28.70;;;6.90;99.90;;;;;;4978086;28;20038;-63
2022/11/11 04:33:09;;;;;;;58.65;28.98;;;6.90;99.90;;;;;;4975356;28;20030;-62
2022/11/11 04:35:34;;;;;;;52.05;28.15;;;6.90;99.90;;;;;;4992996;28;20026;-63
2022/11/11 04:41:02;;;;;;;58.83;29.85;;;6.90;99.90;;;;;;4992687;28;20513;-63
2022/11/11 04:45:26;;;;;;;46.58;25.80;;;7.00;99.90;;;;;;4978158;28;20033;-63
2022/11/11 04:46:17;;;;;;;52.85;27.08;;;6.90;99.90;;;;;;4992376;28;20031;-61
2022/11/11 04:48:42;;;;;;;50.05;27.25;;;6.90;99.90;;;;;;4992475;28;20093;-63
2022/11/11 04:51:08;;;;;;;45.65;23.70;;;6.80;99.90;;;;;;4992539;28;20022;-62
2022/11/11 04:53:34;;;;;;;45.40;26.02;;;6.80;99.90;;;;;;4992265;28;20445;-61
2022/11/11 04:58:45;;;;;;;55.90;29.15;;;6.60;99.90;;;;;;4992387;28;20057;-62
2022/11/11 05:03:14;;;;;;;52.25;26.25;;;6.50;99.90;;;;;;4992570;28;20034;-61
2022/11/11 05:03:56;;;;;;;47.85;25.17;;;6.50;99.90;;;;;;4992200;28;20508;-61
2022/11/11 05:09:06;;;;;;;45.40;26.30;;;6.60;99.90;;;;;;4992107;28;20121;-61
2022/11/11 05:11:34;;;;;;;50.85;26.20;;;6.60;99.90;;;;;;4992606;28;20133;-61
2022/11/11 05:22:35;;;;;;;52.50;28.42;;;6.40;99.90;;;;;;4991431;28;19921;-61
2022/11/11 05:27:47;;;;;;;49.67;28.23;;;6.30;99.90;;;;;;4992051;28;20493;-61
2022/11/11 05:30:14;;;;;;;51.53;30.08;;;6.30;99.90;;;;;;4991618;28;20027;-61
2022/11/11 05:32:41;;;;;;;51.83;27.90;;;6.20;99.90;;;;;;4972446;28;20046;-61
2022/11/11 05:35:07;;;;;;;49.70;28.67;;;6.20;99.90;;;;;;4972339;28;20078;-61
2022/11/11 05:37:33;;;;;;;59.60;31.40;;;6.20;99.90;;;;;;4971904;28;20039;-61
2022/11/11 05:39:59;;;;;;;48.95;29.42;;;6.10;99.90;;;;;;4972068;28;20512;-62
2022/11/11 05:42:24;;;;;;;51.45;29.38;;;6.10;99.90;;;;;;4972300;28;20042;-62
2022/11/11 05:44:50;;;;;;;58.60;32.92;;;6.10;99.90;;;;;;4972441;28;20023;-59
2022/11/11 05:47:16;;;;;;;53.00;30.95;;;6.00;99.90;;;;;;4972058;28;20062;-61
2022/11/11 05:49:41;;;;;;;63.55;35.80;;;6.00;99.90;;;;;;4954467;28;20034;-61
2022/11/11 05:52:09;;;;;;;58.90;32.08;;;5.90;99.90;;;;;;4972197;28;20029;-61
2022/11/11 05:54:35;;;;;;;64.35;34.30;;;5.90;99.90;;;;;;4971775;28;20060;-60
2022/11/11 05:57:02;;;;;;;55.42;29.83;;;5.90;99.90;;;;;;4954578;28;20034;-62
2022/11/11 05:59:28;;;;;;;54.58;29.80;;;6.00;99.90;;;;;;4971770;28;20086;-61
2022/11/11 06:01:53;;;;;;;55.15;29.98;;;6.00;99.90;;;;;;4972102;28;20443;-62
2022/11/11 06:04:19;;;;;;;57.28;30.02;;;6.10;99.90;;;;;;4972265;28;20390;-63
2022/11/11 06:06:45;;;;;;;51.05;27.42;;;6.10;99.90;;;;;;4972223;28;20109;-62
2022/11/11 06:09:10;;;;;;;62.58;33.55;;;6.20;99.90;;;;;;4971949;28;20134;-62
2022/11/11 06:11:36;;;;;;;60.28;31.45;;;6.20;99.90;;;;;;4971932;28;20019;-61
2022/11/11 06:14:02;;;;;;;57.13;31.80;;;6.10;99.90;;;;;;4971865;28;20543;-61
2022/11/11 06:16:28;;;;;;;57.42;31.88;;;6.10;99.90;;;;;;4971766;28;20050;-61
2022/11/11 06:18:53;;;;;;;62.20;33.85;;;6.00;99.90;;;;;;4971679;28;20674;-61
2022/11/11 06:21:19;;;;;;;67.32;35.65;;;6.00;99.90;;;;;;4971978;28;20094;-62
2022/11/11 06:23:45;;;;;;;62.10;33.95;;;6.00;99.90;;;;;;4971643;28;20047;-63
2022/11/11 06:26:15;;;;;;;61.35;32.75;;;6.00;99.90;;;;;;4972004;28;20030;-62
2022/11/11 06:28:58;;;;;;;70.45;37.85;;;6.00;99.90;;;;;;4954150;28;20030;-63
2022/11/11 06:31:26;;;;;;;65.70;36.08;;;6.00;99.90;;;;;;4980843;28;20101;-63
2022/11/11 06:33:52;;;;;;;68.15;35.53;;;6.10;99.90;;;;;;4990010;28;20034;-62
2022/11/11 06:36:20;;;;;;;67.10;36.57;;;6.10;99.90;;;;;;4990841;28;20040;-62
2022/11/11 06:38:46;;;;;;;65.60;37.33;;;6.10;99.90;;;;;;4990560;28;20065;-63
2022/11/11 06:41:12;;;;;;;69.57;36.65;;;6.10;99.90;;;;;;4991143;28;20102;-61
2022/11/11 06:43:39;;;;;;;68.53;37.47;;;6.10;99.90;;;;;;4990991;28;20428;-62
2022/11/11 06:46:05;;;;;;;61.20;33.43;;;6.20;99.90;;;;;;4973276;28;20030;-63
2022/11/11 06:48:30;;;;;;;68.78;36.95;;;6.20;99.90;;;;;;4990745;28;20045;-63
2022/11/11 06:51:05;;;;;;;64.47;33.20;;;6.20;99.90;;;;;;4973170;28;20065;-64
2022/11/11 06:53:30;;;;;;;67.72;35.38;;;6.40;99.90;;;;;;4990408;28;20030;-63
2022/11/11 06:55:57;;;;;;;67.00;37.20;;;6.50;99.90;;;;;;4973101;28;20030;-63
2022/11/11 06:58:23;;;;;;;71.60;38.30;;;6.60;99.90;;;;;;4973015;28;20137;-63
2022/11/11 07:00:49;;;;;;;57.38;31.45;;;6.60;99.90;;;;;;4990422;28;20022;-64
2022/11/11 07:03:18;;;;;;;71.63;41.67;;;6.70;99.90;;;;;;4990674;28;20427;-63
2022/11/11 07:05:47;;;;;;;58.60;33.50;;;6.80;99.90;;;;;;4990542;28;20053;-63
2022/11/11 07:08:16;;;;;;;63.25;35.33;;;6.90;99.90;;;;;;4990229;28;20101;-63
2022/11/11 07:10:46;;;;;;;57.00;32.97;;;7.00;99.90;;;;;;4990542;28;20054;-64
2022/11/11 07:13:13;;;;;;;47.55;25.70;;;7.10;99.90;;;;;;4990591;28;20080;-63
2022/11/11 07:15:40;;;;;;;46.20;25.60;;;7.10;99.90;;;;;;4990622;28;20330;-63
2022/11/11 07:18:05;;;;;;;44.90;26.02;;;7.20;99.90;;;;;;4990324;28;20493;-63
2022/11/11 07:20:31;;;;;;;44.05;25.38;;;7.40;99.90;;;;;;4990438;28;20098;-64
2022/11/11 07:22:57;;;;;;;51.15;25.95;;;7.40;99.90;;;;;;4989930;28;20101;-63
2022/11/11 07:25:23;;;;;;;36.58;19.70;;;7.50;99.90;;;;;;4990339;28;20046;-66
2022/11/11 07:27:54;;;;;;;34.63;18.90;;;7.60;99.90;;;;;;4990293;28;20042;-66
2022/11/11 07:30:20;;;;;;;35.45;19.48;;;7.80;99.90;;;;;;4972399;28;20026;-65
2022/11/11 07:32:48;;;;;;;28.50;16.17;;;8.00;99.90;;;;;;4978962;28;20063;-64
2022/11/11 07:35:14;;;;;;;;;;;8.00;99.90;;;;;;4990603;28;20031;-65
2022/11/11 07:37:46;;;;;;;28.27;15.35;;;8.10;99.90;;;;;;4985627;28;19914;-62
2022/11/11 07:40:15;;;;;;;31.92;17.52;;;8.20;99.90;;;;;;4987490;28;20323;-66
2022/11/11 07:42:42;;;;;;;31.27;16.48;;;8.20;99.90;;;;;;4972078;28;20725;-64
2022/11/11 07:45:09;;;;;;;28.77;16.60;;;8.20;99.90;;;;;;4991445;28;20104;-63
2022/11/11 07:47:35;;;;;;;32.88;16.55;;;8.20;99.90;;;;;;4993252;28;20041;-64
2022/11/11 07:50:02;;;;;;;35.63;16.65;;;8.20;99.90;;;;;;4993694;28;20030;-62
2022/11/11 07:52:28;;;;;;;30.33;17.67;;;8.20;99.90;;;;;;4975627;28;20022;-63
2022/11/11 07:54:53;;;;;;;27.27;16.63;;;8.10;99.90;;;;;;4992828;28;20029;-65
2022/11/11 07:57:19;;;;;;;27.35;16.95;;;8.30;99.90;;;;;;4993315;28;20398;-65
2022/11/11 07:59:45;;;;;;;30.08;17.13;;;8.30;99.90;;;;;;4978129;28;20066;-62
2022/11/11 08:02:11;;;;;;;37.03;17.42;;;8.40;99.90;;;;;;4980813;28;20038;-63
2022/11/11 08:04:37;;;;;;;32.80;17.65;;;8.30;99.90;;;;;;4963886;28;20030;-64
2022/11/11 08:07:03;;;;;;;35.03;18.42;;;8.30;99.90;;;;;;4983062;28;20022;-63
2022/11/11 08:09:29;;;;;;;36.45;18.20;;;8.30;99.90;;;;;;4965304;28;20444;-64
2022/11/11 08:14:42;;;;;;;33.65;19.77;;;8.30;99.90;;;;;;4969170;28;20231;-63
2022/11/11 08:17:08;;;;;;;31.90;18.08;;;8.40;99.90;;;;;;4982990;28;20102;-61
2022/11/11 08:19:33;;;;;;;37.38;20.42;;;8.40;99.90;;;;;;4981460;28;20022;-60
2022/11/11 08:21:59;;;;;;;36.72;20.20;;;8.50;99.90;;;;;;4965704;28;20030;-62
2022/11/11 08:24:25;;;;;;;37.28;19.20;;;8.60;99.90;;;;;;4982008;28;20490;-61
2022/11/11 08:26:52;;;;;;;39.53;20.48;;;8.70;99.90;;;;;;4964579;28;20482;-63
2022/11/11 08:29:19;;;;;;;33.20;20.65;;;9.00;99.90;;;;;;4983229;28;20037;-61
2022/11/11 08:31:44;;;;;;;38.88;19.23;;;9.10;99.90;;;;;;4981725;28;20472;-63
2022/11/11 08:34:11;;;;;;;36.90;19.25;;;9.30;99.90;;;;;;4983595;28;20068;-62
2022/11/11 08:36:37;;;;;;;42.35;19.58;;;9.60;99.90;;;;;;4982327;28;20030;-61
2022/11/11 08:39:02;;;;;;;37.78;18.05;;;9.80;99.90;;;;;;4982222;28;20018;-60
2022/11/11 08:41:28;;;;;;;30.40;16.92;;;9.80;99.90;;;;;;4981340;28;20452;-61
2022/11/11 08:43:54;;;;;;;31.23;18.98;;;9.90;99.90;;;;;;4957202;28;20026;-61
2022/11/11 08:46:20;;;;;;;32.08;18.13;;;9.90;99.90;;;;;;4972219;28;20037;-60
2022/11/11 08:48:46;;;;;;;31.67;16.83;;;10.40;99.90;;;;;;4973074;28;20089;-63
2022/11/11 08:51:12;;;;;;;37.22;19.27;;;10.40;99.90;;;;;;4972683;28;20106;-61
2022/11/11 08:53:38;;;;;;;36.45;19.20;;;10.30;99.90;;;;;;4973174;28;20041;-60
2022/11/11 08:56:04;;;;;;;30.67;18.85;;;10.70;99.90;;;;;;4972356;28;20458;-61
2022/11/11 08:58:30;;;;;;;39.30;20.05;;;10.40;99.90;;;;;;4972568;28;20101;-62
2022/11/11 09:00:56;;;;;;;36.47;19.67;;;10.20;99.90;;;;;;4954945;28;20031;-61
2022/11/11 09:03:21;;;;;;;42.88;19.38;;;10.30;99.90;;;;;;4971265;28;20058;-62
2022/11/11 09:05:47;;;;;;;36.65;18.05;;;10.10;99.90;;;;;;4971134;28;20046;-61
2022/11/11 09:08:13;;;;;;;38.00;20.35;;;10.10;99.90;;;;;;4971003;28;20031;-62
2022/11/11 09:10:38;;;;;;;39.70;19.90;;;10.00;99.90;;;;;;4953562;28;20027;-61
2022/11/11 09:13:05;;;;;;;40.65;19.90;;;9.80;99.90;;;;;;4971450;28;20713;-61
2022/11/11 09:15:31;;;;;;;41.30;20.50;;;9.80;99.90;;;;;;4971973;28;20027;-61
2022/11/11 09:17:57;;;;;;;37.95;19.90;;;9.90;99.90;;;;;;4954895;28;20035;-60
2022/11/11 09:20:23;;;;;;;36.38;19.25;;;9.70;99.90;;;;;;4955031;28;20094;-60
2022/11/11 09:22:49;;;;;;;45.28;20.45;;;9.80;99.90;;;;;;4972566;28;20030;-61
2022/11/11 09:25:15;;;;;;;42.00;21.30;;;9.80;99.90;;;;;;4981688;28;20042;-62
2022/11/11 09:27:42;;;;;;;41.45;20.38;;;9.80;99.90;;;;;;4991567;28;20042;-60
2022/11/11 09:30:09;;;;;;;36.60;19.05;;;9.70;99.90;;;;;;4989541;28;20125;-63
2022/11/11 09:32:35;;;;;;;48.65;22.70;;;9.70;99.90;;;;;;4985626;28;20109;-63
2022/11/11 09:35:01;;;;;;;46.60;21.70;;;9.60;99.90;;;;;;4990953;28;20018;-65
2022/11/11 09:37:27;;;;;;;47.42;22.55;;;9.60;99.90;;;;;;4991567;28;20414;-63
2022/11/11 09:39:55;;;;;;;47.30;20.38;;;9.70;99.90;;;;;;4990827;28;20483;-62
2022/11/11 09:42:32;;;;;;;50.70;24.23;;;9.90;99.90;;;;;;4991511;28;20565;-61
2022/11/11 09:45:08;;;;;;;48.25;22.65;;;10.00;99.90;;;;;;4982938;28;20063;-61
2022/11/11 09:48:19;;;;;;;44.08;22.73;;;10.20;99.90;;;;;;4972124;28;20125;-62
2022/11/11 09:50:53;;;;;;;42.67;22.17;;;10.20;99.90;;;;;;4972216;28;20046;-63
2022/11/11 09:53:39;;;;;;;41.28;21.08;;;10.50;99.90;;;;;;4971991;28;20034;-64
2022/11/11 09:56:16;;;;;;;48.80;22.88;;;10.70;99.90;;;;;;4971733;28;20039;-62
2022/11/11 09:58:50;;;;;;;51.00;23.77;;;10.70;99.90;;;;;;4954363;28;20101;-66
2022/11/11 10:01:25;;;;;;;53.53;24.25;;;10.80;99.90;;;;;;4971759;28;20045;-62
2022/11/11 10:04:12;;;;;;;50.53;23.20;;;11.10;99.90;;;;;;4971901;28;20039;-67
2022/11/11 10:06:38;;;;;;;45.00;21.85;;;11.30;99.90;;;;;;4976394;28;20037;-61
2022/11/11 10:09:16;;;;;;;45.47;21.13;;;11.00;99.90;;;;;;4979219;28;20752;-58
2022/11/11 10:12:04;;;;;;;50.25;21.60;;;11.00;99.90;;;;;;4963955;28;20023;-60
2022/11/11 10:14:35;;;;;;;42.20;21.08;;;11.40;99.90;;;;;;4982057;28;20034;-61
2022/11/11 10:17:32;;;;;;;40.40;21.23;;;11.80;99.90;;;;;;4967825;28;20074;-60
2022/11/11 10:20:14;;;;;;;44.50;21.60;;;12.30;99.90;;;;;;4956208;28;20033;-63
2022/11/11 10:22:45;;;;;;;35.85;18.17;;;12.10;99.90;;;;;;4988596;28;20042;-63
2022/11/11 10:25:15;;;;;;;35.97;18.40;;;12.30;99.90;;;;;;4989939;28;20030;-60
2022/11/11 10:27:46;;;;;;;36.75;18.20;;;12.60;99.90;;;;;;4989495;28;20053;-66
2022/11/11 10:30:24;;;;;;;37.97;19.55;;;13.00;99.90;;;;;;4989720;28;20053;-61
2022/11/11 10:33:10;;;;;;;38.10;19.52;;;12.50;99.90;;;;;;4989606;28;20053;-63
2022/11/11 10:35:38;;;;;;;38.15;20.10;;;12.30;99.90;;;;;;4988239;28;20030;-62
2022/11/11 10:38:10;;;;;;;42.22;19.40;;;12.50;99.90;;;;;;4989727;28;20022;-65
2022/11/11 10:40:45;;;;;;;31.25;16.40;;;12.70;99.90;;;;;;4989684;28;20030;-64
2022/11/11 10:43:23;;;;;;;35.17;18.63;;;12.70;99.90;;;;;;4987349;28;20414;-68
2022/11/11 10:46:15;;;;;;;42.55;20.42;;;12.50;99.90;;;;;;4986957;28;20027;-64
2022/11/11 10:49:13;;;;;;;33.53;18.65;;;12.40;99.90;;;;;;4970990;28;20030;-63
2022/11/11 10:51:48;;;;;;;40.78;19.73;;;12.10;99.90;;;;;;4988229;28;20105;-66
2022/11/11 10:54:20;;;;;;;28.98;15.65;;;11.90;99.90;;;;;;4987562;28;20061;-69
2022/11/11 10:57:15;;;;;;;29.60;16.70;;;12.00;99.90;;;;;;4989009;28;20022;-67
2022/11/11 10:59:56;;;;;;;29.33;15.48;;;12.10;99.90;;;;;;4988308;28;20120;-62
2022/11/11 11:03:06;;;;;;;25.20;14.70;;;12.30;99.90;;;;;;4972093;28;20028;-62
2022/11/11 11:05:41;;;;;;;119.78;79.72;;;12.00;99.90;;;;;;4987276;28;20516;-66
2022/11/11 11:08:23;;;;;;;27.60;17.17;;;12.10;99.90;;;;;;4989077;28;20026;-63
2022/11/11 11:11:01;;;;;;;22.33;12.95;;;12.10;99.90;;;;;;4986373;28;20386;-65
2022/11/11 11:13:41;;;;;;;22.17;13.32;;;12.00;99.90;;;;;;4988991;28;20049;-62
2022/11/11 11:16:19;;;;;;;23.48;12.95;;;12.00;99.90;;;;;;4986528;28;20026;-62
2022/11/11 11:19:05;;;;;;;;;;;12.20;99.90;;;;;;4969405;28;20026;-64
2022/11/11 11:21:47;;;;;;;21.42;12.32;;;12.50;99.90;;;;;;4993001;28;19956;-69
2022/11/11 11:24:19;;;;;;;28.85;12.80;;;12.10;99.90;;;;;;4991295;28;20037;-67
2022/11/11 11:26:50;;;;;;;23.13;11.75;;;12.20;99.90;;;;;;4993472;28;20044;-70
2022/11/11 11:29:25;;;;;;;22.67;13.15;;;12.10;99.90;;;;;;4993085;28;20030;-68
2022/11/11 11:31:51;;;;;;;27.67;12.20;;;12.20;99.90;;;;;;4991086;28;20015;-64
2022/11/11 11:34:17;;;;;;;21.88;12.38;;;12.60;99.90;;;;;;4993324;28;20145;-62
2022/11/11 11:36:42;;;;;;;21.63;12.43;;;12.70;99.90;;;;;;4993104;28;20053;-64
2022/11/11 11:39:08;;;;;;;23.73;10.98;;;12.80;99.90;;;;;;4993067;28;20461;-63
2022/11/11 11:41:42;;;;;;;21.35;11.45;;;12.80;99.90;;;;;;4990040;28;20022;-64
2022/11/11 11:44:25;;;;;;;19.58;10.45;;;12.70;99.90;;;;;;4958518;28;20033;-67
2022/11/11 11:46:59;;;;;;;17.58;11.48;;;12.80;99.90;;;;;;4990357;28;20082;-63
2022/11/11 11:49:41;;;;;;;26.15;11.15;;;12.80;99.90;;;;;;4992491;28;20451;-63
2022/11/11 11:52:17;;;;;;;24.80;10.27;;;12.70;99.90;;;;;;4992574;28;20056;-63
2022/11/11 11:55:00;;;;;;;19.25;10.52;;;12.60;99.90;;;;;;4992406;28;20114;-65
2022/11/11 11:57:45;;;;;;;14.00;8.85;;;12.50;99.90;;;;;;4992196;28;20022;-62
2022/11/11 12:00:19;;;;;;;19.75;10.30;;;12.30;99.90;;;;;;4989992;28;20037;-69
2022/11/11 12:02:45;;;;;;;23.63;10.60;;;12.30;99.90;;;;;;4992351;28;20370;-62
2022/11/11 12:05:32;;;;;;;23.20;9.88;;;12.30;99.90;;;;;;4992167;28;20015;-67
2022/11/11 12:08:16;;;;;;;18.40;8.98;;;12.30;99.90;;;;;;4991867;28;20863;-64
2022/11/11 12:11:22;;;;;;;15.52;8.90;;;12.30;99.90;;;;;;4972482;28;20026;-64
2022/11/11 12:14:16;;;;;;;17.50;9.73;;;12.30;99.90;;;;;;4991172;28;20391;-65
2022/11/11 12:17:07;;;;;;;21.95;10.30;;;12.20;99.90;;;;;;4990923;28;20023;-63
2022/11/11 12:19:47;;;;;;;17.80;10.45;;;12.30;99.90;;;;;;4989541;28;20014;-65
2022/11/11 12:22:30;;;;;;;28.67;11.00;;;12.10;99.90;;;;;;4982119;28;20034;-66
2022/11/11 12:25:15;;;;;;;22.13;11.15;;;12.20;99.90;;;;;;4990032;28;20033;-64
2022/11/11 12:28:09;;;;;;;28.17;11.98;;;12.10;99.90;;;;;;4974152;28;20129;-66
2022/11/11 12:30:39;;;;;;;21.30;12.65;;;12.10;99.90;;;;;;4990107;28;20129;-63
2022/11/11 12:33:41;;;;;;;27.23;11.43;;;12.20;99.90;;;;;;4989850;28;20049;-63
2022/11/11 12:36:13;;;;;;;23.00;11.52;;;12.00;99.90;;;;;;4989861;28;20037;-65
2022/11/11 12:38:49;;;;;;;26.35;13.70;;;12.10;99.90;;;;;;4990160;28;20089;-64
2022/11/11 12:41:23;;;;;;;22.38;12.57;;;12.00;99.90;;;;;;4989170;28;20101;-64
2022/11/11 12:44:00;;;;;;;25.52;12.00;;;11.90;99.90;;;;;;4987798;28;20121;-62
2022/11/11 12:46:44;;;;;;;22.67;12.00;;;11.80;99.90;;;;;;4982203;28;20031;-65
2022/11/11 12:49:31;;;;;;;23.15;12.05;;;11.80;99.90;;;;;;4982012;28;20050;-66
2022/11/11 12:52:29;;;;;;;22.90;13.43;;;11.70;99.90;;;;;;4965762;28;20027;-65
2022/11/11 12:55:00;;;;;;;23.73;13.82;;;11.70;99.90;;;;;;4968210;28;20470;-64
2022/11/11 12:57:45;;;;;;;27.80;14.77;;;11.70;99.90;;;;;;4981200;28;20022;-65
2022/11/11 13:00:21;;;;;;;25.00;14.82;;;11.60;99.90;;;;;;4982803;28;20022;-62
2022/11/11 13:03:14;;;;;;;30.08;14.75;;;11.60;99.90;;;;;;4982930;28;20065;-66
2022/11/11 13:06:03;;;;;;;28.67;13.65;;;11.60;99.90;;;;;;4983091;28;20027;-65
2022/11/11 13:08:48;;;;;;;28.05;14.75;;;11.60;99.90;;;;;;4976036;28;20090;-62
2022/11/11 13:11:17;;;;;;;34.03;15.20;;;11.60;99.90;;;;;;4984217;28;20605;-63
2022/11/11 13:14:21;;;;;;;32.00;15.90;;;11.60;99.90;;;;;;4992010;28;20026;-62
2022/11/11 13:16:50;;;;;;;26.98;14.93;;;11.60;99.90;;;;;;4969983;28;20042;-65
2022/11/11 13:19:34;;;;;;;33.35;17.33;;;11.60;99.90;;;;;;4989815;28;20032;-62
2022/11/11 13:22:07;;;;;;;35.78;16.52;;;11.60;99.90;;;;;;4989847;28;20030;-63
2022/11/11 13:24:34;;;;;;;34.38;17.67;;;11.60;99.90;;;;;;4988614;28;20485;-63
2022/11/11 13:27:11;;;;;;;33.72;18.40;;;11.60;99.90;;;;;;4989671;28;20035;-63
2022/11/11 13:29:37;;;;;;;34.47;16.33;;;11.60;99.90;;;;;;4989583;28;20038;-63
2022/11/11 13:32:08;;;;;;;29.15;17.77;;;11.50;99.90;;;;;;4987134;28;20113;-64
2022/11/11 13:34:39;;;;;;;30.00;16.75;;;11.50;99.90;;;;;;4989724;28;20057;-63
2022/11/11 13:37:08;;;;;;;23.60;15.98;;;11.50;99.90;;;;;;4989621;28;20022;-63
2022/11/11 13:39:39;;;;;;;34.38;18.55;;;11.50;99.90;;;;;;4989695;28;20054;-64
2022/11/11 13:42:06;;;;;;;33.25;17.40;;;11.40;99.90;;;;;;4987144;28;20023;-66
2022/11/11 13:44:38;;;;;;;35.03;18.85;;;11.40;99.90;;;;;;4989818;28;20030;-63
2022/11/11 13:47:09;;;;;;;31.67;16.08;;;11.40;99.90;;;;;;4989796;28;20041;-65
2022/11/11 13:49:45;;;;;;;31.20;18.40;;;11.40;99.90;;;;;;4989207;28;20490;-66
2022/11/11 13:52:27;;;;;;;28.35;17.52;;;11.40;99.90;;;;;;4988283;28;20109;-65
2022/11/11 13:55:18;;;;;;;32.47;19.67;;;11.40;99.90;;;;;;4989552;28;20084;-62
2022/11/11 13:57:50;;;;;;;35.30;18.83;;;11.40;99.90;;;;;;4988931;28;20053;-67
2022/11/11 14:00:16;;;;;;;35.53;18.80;;;11.40;99.90;;;;;;4971707;28;20573;-60
2022/11/11 14:02:42;;;;;;;40.80;21.20;;;11.40;99.90;;;;;;4989811;28;20034;-62
2022/11/11 14:05:09;;;;;;;42.80;22.42;;;11.40;99.90;;;;;;4972754;28;20399;-67